Flight Track Log - Related Links

Times and Time Zones

All times are in EDT time to prevent confusion due to time zone crossing. See the EJA396 flight status page for this flight to view local times or setup timezone preferences in your user account.

Time Position Orientation Groundspeed Altitude Reporting Facility
EDT Latitude Longitude Course Direction KTS MPH feet Rate Location/Type
Wed 04:46:00 PM 43.3594 -73.6081 140° Southeast 155 178 1,900  Level Boston Center
Wed 04:47:03 PM 43.3244 -73.5675 140° Southeast 157 181 3,900 2,000 Climbing Boston Center
Wed 04:48:03 PM 43.2675 -73.6178 213° Southwest 191 220 6,000 2,864 Climbing Boston Center
Wed 04:49:15 PM 43.1978 -73.7103 224° Southwest 271 312 10,200 3,273 Climbing Boston Center
Wed 04:50:15 PM 43.1322 -73.7914 222° Southwest 329 379 13,200 3,550 Climbing Boston Center
Wed 04:51:15 PM 43.0583 -73.8808 222° Southwest 359 413 17,300 3,350 Climbing Boston Center
Wed 04:52:15 PM 42.9756 -73.9867 223° Southwest 359 413 19,900 1,350 Climbing Boston Center
Wed 04:53:15 PM 42.8969 -74.0867 223° Southwest 374 430 20,000 50 Climbing Boston Center
Wed 04:54:15 PM 42.8206 -74.1781 221° Southwest 386 444 20,000  Level Boston Center
Wed 04:55:15 PM 42.7378 -74.2833 223° Southwest 399 459 20,000  Level Boston Center
Wed 04:56:15 PM 42.6569 -74.3825 222° Southwest 399 459 20,000  Level Boston Center
Wed 04:57:15 PM 42.5758 -74.4814 222° Southwest 394 453 20,000  Level Boston Center
Wed 04:58:15 PM 42.4947 -74.5803 222° Southwest 394 453 20,000  Level Boston Center
Wed 04:59:15 PM 42.4181 -74.6731 222° Southwest 389 448 20,000 -318 Level Boston Center
Wed 05:00:27 PM 42.3347 -74.7742 222° Southwest 389 448 19,300 -455 Descending Boston Center
Wed 05:01:27 PM 42.2364 -74.8911 221° Southwest 395 455 19,000 -150 Descending Boston Center
Wed 05:02:27 PM 42.1531 -74.9831 219° Southwest 395 455 19,000  Level Boston Center
Wed 05:04:54 PM 41.9131 -75.1606 209° Southwest 384 442 19,000  Level New York Center
Wed 05:05:54 PM 41.8314 -75.2275 211° Southwest 384 442 19,000 -446 Level New York Center
Wed 05:06:55 PM 41.7542 -75.3392 227° Southwest 378 435 18,100 -843 Descending New York Center
Wed 05:07:55 PM 41.6900 -75.4375 229° Southwest 372 428 17,300 -610 Descending New York Center
Wed 05:08:53 PM 41.6236 -75.5356 228° Southwest 365 420 16,900 -1,068 Descending New York Center
Wed 05:09:53 PM 41.5500 -75.6081 216° Southwest 365 420 15,200 -1,600 Descending New York Center
Wed 05:10:53 PM 41.4467 -75.6392 193° South 370 426 13,700 -1,488 Descending New York Center
Wed 05:11:54 PM 41.3456 -75.6678 192° South 376 433 12,200 -942 Descending New York Center
Wed 05:12:54 PM 41.2328 -75.6706 181° South 376 433 11,800 -750 Descending New York Center
Wed 05:13:54 PM 41.1367 -75.6306 163° South 376 433 10,700 -1,100 Descending New York Center
Wed 05:14:54 PM 41.0467 -75.5911 162° South 354 407 9,600 -843 Descending New York Center
Wed 05:15:55 PM 40.9625 -75.5578 163° South 324 373 9,000 -595 Descending New York Center
Wed 05:16:55 PM 40.8806 -75.5217 162° South 319 367 8,400 -718 Descending New York Center
Wed 05:17:52 PM 40.7986 -75.4858 162° South 319 367 7,600 -966 Descending New York Center
Wed 05:18:53 PM 40.7189 -75.4475 160° South 313 360 6,500 -992 Descending New York Center
Wed 05:19:53 PM 40.6525 -75.3911 147° Southeast 302 348 5,600 -744 Descending New York Center
Wed 05:20:54 PM 40.5858 -75.3347 147° Southeast 282 325 5,000 -298 Descending New York Center
Wed 05:21:54 PM 40.5192 -75.2783 147° Southeast 282 325 5,000  Level New York Center
Wed 05:22:54 PM 40.4647 -75.2311 147° Southeast 287 330 5,000  Level New York Center
Wed 05:23:54 PM 40.3922 -75.1692 147° Southeast 282 325 5,000  Level New York Center
Wed 05:24:54 PM 40.3275 -75.1106 145° Southeast 287 330 5,000  Level New York Center
Wed 05:25:55 PM 40.2914 -75.0186 117° Southeast 280 322 5,000 -252 Level New York Center
Wed 05:26:53 PM 40.2611 -74.9325 115° Southeast 285 328 4,500 -508 Descending New York Center
Wed 05:27:53 PM 40.2439 -74.8308 102° East 273 314 4,000 -248 Descending New York Center
Wed 05:28:54 PM 40.2306 -74.7294 100° East 268 308 4,000 -492 Level New York Center
Wed 05:29:55 PM 40.2192 -74.6308 99° East 268 308 3,000 -992 Descending New York Center
Wed 05:30:55 PM 40.2100 -74.5325 97° East 273 314 2,000 -504 Descending New York Center
Wed 05:31:54 PM 40.2044 -74.4425 95° East 265 305 2,000  Level New York Center
Wed 05:32:54 PM 40.1925 -74.3578 100° East 247 284 2,000  Level New York Center
Wed 05:33:54 PM 40.1881 -74.2950 95° East 210 242 2,000 -99 Level New York Center
Wed 05:34:55 PM 40.1861 -74.2189 92° East 186 214 1,800 -149 Descending New York Center
Wed 05:35:55 PM 40.1669 -74.1661 115° Southeast 163 188 1,700 -153 Descending New York Center
Wed 05:36:53 PM 40.1475 -74.1164 117° Southeast 156 180 1,500 -207 Descending New York Center
Wed 05:38:00 PM 40.1833 -74.1167 346° North  Level FlightAware Approximate
Wed 05:45:00 PM 40.1867 -74.1246 346° North  Level Estimated
Wed 05:46:00 PM 40.1833 -74.1167 346° North  Level FlightAware Approximate
Wed 05:47:00 PM 40.1867 -74.1246 346° North  Level Estimated
Wed 05:48:00 PM 40.1833 -74.1167 346° North  Level FlightAware Approximate
Wed 05:49:00 PM 40.1867 -74.1246 346° North  Level Estimated
Wed 05:50:00 PM 40.1833 -74.1167 346° North  Level FlightAware Approximate
Wed 05:51:00 PM 40.1867 -74.1246 346° North  Level Estimated
Wed 05:52:00 PM 40.1833 -74.1167 346° North  Level FlightAware Approximate
Wed 05:53:00 PM 40.1867 -74.1246 346° North  Level Estimated

Login

Don't have an account? Register now (free) for customized features, flight alerts, and more!